createdAt,value
2018-06-03T00:02:13.362Z,3.00
2018-06-03T00:04:40.886Z,3.00
2018-06-03T00:07:08.430Z,3.10
2018-06-03T00:09:35.944Z,3.13
2018-06-03T00:12:03.468Z,2.80
2018-06-03T00:14:31.024Z,3.27
2018-06-03T00:16:58.555Z,2.77
2018-06-03T00:19:26.068Z,2.90
2018-06-03T00:21:53.654Z,3.47
2018-06-03T00:24:21.228Z,3.10
2018-06-03T00:26:48.746Z,2.70
2018-06-03T00:29:16.266Z,3.07
2018-06-03T00:31:43.776Z,3.00
2018-06-03T00:34:11.309Z,2.97
2018-06-03T00:36:43.664Z,3.10
2018-06-03T00:39:11.346Z,2.70
2018-06-03T00:41:38.850Z,2.90
2018-06-03T00:44:06.451Z,3.20
2018-06-03T00:46:33.998Z,3.50
2018-06-03T00:49:15.890Z,3.20
2018-06-03T00:51:43.394Z,3.20
2018-06-03T00:54:10.943Z,3.23
2018-06-03T00:56:51.005Z,2.90
2018-06-03T00:59:24.489Z,3.30
2018-06-03T01:01:52.048Z,2.83
2018-06-03T01:04:19.573Z,3.83
2018-06-03T01:06:47.114Z,3.27
2018-06-03T01:09:14.698Z,3.53
2018-06-03T01:11:42.216Z,3.60
2018-06-03T01:14:10.531Z,3.00
2018-06-03T01:16:38.105Z,3.17
2018-06-03T01:19:05.666Z,3.43
2018-06-03T01:21:33.236Z,3.10
2018-06-03T01:24:00.766Z,3.10
2018-06-03T01:26:28.321Z,3.17
2018-06-03T01:28:55.839Z,3.10
2018-06-03T01:31:23.392Z,3.20
2018-06-03T01:33:51.707Z,3.30
2018-06-03T01:36:19.235Z,3.10
2018-06-03T01:38:46.762Z,3.37
2018-06-03T01:41:14.291Z,3.33
2018-06-03T01:43:41.815Z,3.00
2018-06-03T01:46:09.359Z,2.80
2018-06-03T01:48:37.668Z,3.03
2018-06-03T01:51:05.235Z,3.60
2018-06-03T01:53:32.764Z,3.00
2018-06-03T01:56:00.301Z,3.10
2018-06-03T01:58:27.839Z,3.13
2018-06-03T02:00:55.344Z,3.50
2018-06-03T02:03:22.879Z,3.97
2018-06-03T02:05:50.433Z,3.70
2018-06-03T02:08:18.002Z,3.50
2018-06-03T02:10:45.562Z,3.40
2018-06-03T02:13:13.095Z,2.90
2018-06-03T02:15:40.602Z,2.83
2018-06-03T02:18:08.151Z,3.00
2018-06-03T02:20:35.683Z,3.00
2018-06-03T02:23:03.201Z,3.43
2018-06-03T02:25:30.774Z,3.40
2018-06-03T02:27:58.295Z,3.70
2018-06-03T02:30:25.819Z,3.20
2018-06-03T02:32:53.379Z,3.23
2018-06-03T02:35:20.907Z,3.40
2018-06-03T02:37:48.467Z,3.00
2018-06-03T02:40:16.012Z,3.17
2018-06-03T02:42:43.538Z,3.10
2018-06-03T02:45:11.070Z,3.10
2018-06-03T02:47:39.365Z,3.27
2018-06-03T02:50:06.883Z,3.40
2018-06-03T02:52:34.477Z,3.60
2018-06-03T02:55:01.998Z,3.20
2018-06-03T02:57:29.505Z,3.50
2018-06-03T02:59:57.282Z,3.27
2018-06-03T03:02:24.798Z,3.50
2018-06-03T03:04:52.316Z,3.33
2018-06-03T03:07:19.860Z,3.70
2018-06-03T03:09:52.584Z,3.53
2018-06-03T03:12:20.152Z,3.17
2018-06-03T03:14:48.432Z,3.30
2018-06-03T03:17:15.946Z,2.80
2018-06-03T03:19:43.508Z,3.17
2018-06-03T03:22:11.023Z,3.40
2018-06-03T03:24:38.651Z,3.43
2018-06-03T03:27:06.176Z,3.07
2018-06-03T03:29:33.690Z,3.23
2018-06-03T03:32:01.218Z,3.30
2018-06-03T03:34:28.751Z,3.70
2018-06-03T03:36:56.276Z,3.37
2018-06-03T03:39:23.822Z,3.47
2018-06-03T03:41:51.322Z,3.23
2018-06-03T03:44:18.871Z,3.10
2018-06-03T03:46:46.367Z,3.40
2018-06-03T03:49:13.883Z,3.37
2018-06-03T03:51:41.454Z,3.60
2018-06-03T03:54:08.976Z,3.47
2018-06-03T03:56:36.539Z,4.00
2018-06-03T03:59:04.084Z,3.40
2018-06-03T04:01:32.375Z,3.60
2018-06-03T04:03:59.892Z,3.70
2018-06-03T04:06:27.457Z,3.80
2018-06-03T04:08:55.020Z,3.50
2018-06-03T04:11:22.538Z,3.67
2018-06-03T04:13:50.054Z,3.40
2018-06-03T04:16:17.592Z,3.27
2018-06-03T04:18:45.132Z,3.50
2018-06-03T04:21:12.681Z,3.50
2018-06-03T04:23:40.211Z,3.50
2018-06-03T04:26:07.738Z,3.30
2018-06-03T04:28:35.271Z,3.67
2018-06-03T04:31:02.815Z,4.07
2018-06-03T04:33:30.351Z,4.57
2018-06-03T04:35:57.911Z,4.00
2018-06-03T04:38:25.479Z,3.90
2018-06-03T04:40:53.015Z,3.43
2018-06-03T04:43:20.529Z,3.80
2018-06-03T04:45:48.058Z,3.50
2018-06-03T04:48:15.563Z,3.53
2018-06-03T04:50:43.858Z,4.00
2018-06-03T04:53:11.392Z,4.20
2018-06-03T04:55:39.699Z,4.33
2018-06-03T04:58:07.198Z,4.00
2018-06-03T05:00:34.738Z,3.80
2018-06-03T05:03:02.271Z,3.97
2018-06-03T05:05:29.806Z,3.43
2018-06-03T05:07:58.083Z,3.37
2018-06-03T05:10:26.396Z,3.83
2018-06-03T05:12:53.899Z,3.73
2018-06-03T05:15:21.395Z,3.93
2018-06-03T05:17:48.927Z,3.80
2018-06-03T05:20:16.443Z,4.03
2018-06-03T05:22:43.968Z,3.67
2018-06-03T05:25:11.517Z,4.57
2018-06-03T05:27:39.112Z,4.27
2018-06-03T05:30:06.661Z,4.67
2018-06-03T05:32:34.191Z,6.63
2018-06-03T05:35:01.751Z,5.40
2018-06-03T05:37:29.267Z,4.57
2018-06-03T05:39:56.807Z,4.30
2018-06-03T05:42:24.322Z,4.60
2018-06-03T05:44:51.912Z,4.83
2018-06-03T05:47:19.486Z,4.60
2018-06-03T05:49:47.127Z,3.97
2018-06-03T05:52:14.734Z,4.27
2018-06-03T05:54:42.252Z,3.87
2018-06-03T05:57:09.822Z,3.87
2018-06-03T05:59:42.454Z,4.40
2018-06-03T06:02:10.831Z,4.03
2018-06-03T06:04:39.112Z,3.90
2018-06-03T06:07:06.628Z,4.37
2018-06-03T06:09:34.172Z,4.07
2018-06-03T06:12:01.715Z,4.03
2018-06-03T06:14:29.231Z,4.13
2018-06-03T06:16:56.790Z,3.80
2018-06-03T06:19:34.018Z,4.20
2018-06-03T06:22:01.555Z,3.93
2018-06-03T06:24:29.072Z,4.20
2018-06-03T06:26:56.627Z,4.20
2018-06-03T06:29:24.227Z,5.30
2018-06-03T06:31:51.704Z,4.03
2018-06-03T06:34:19.283Z,4.33
2018-06-03T06:36:46.801Z,3.70
2018-06-03T06:39:14.325Z,4.10
2018-06-03T06:41:41.975Z,4.60
2018-06-03T06:44:09.512Z,4.77
2018-06-03T06:46:37.048Z,4.20
2018-06-03T06:49:04.595Z,3.97
2018-06-03T06:51:32.128Z,4.23
2018-06-03T06:53:59.686Z,4.47
2018-06-03T06:56:27.240Z,4.50
2018-06-03T06:58:54.791Z,4.13
2018-06-03T07:01:23.076Z,4.10
2018-06-03T07:03:50.606Z,4.50
2018-06-03T07:06:18.148Z,4.40
2018-06-03T07:08:45.671Z,4.13
2018-06-03T07:11:13.972Z,4.20
2018-06-03T07:13:41.546Z,4.30
2018-06-03T07:16:09.111Z,3.83
2018-06-03T07:18:36.623Z,3.93
2018-06-03T07:21:04.898Z,3.67
2018-06-03T07:23:33.253Z,4.30
2018-06-03T07:26:00.772Z,3.90
2018-06-03T07:28:28.307Z,4.03
2018-06-03T07:30:55.831Z,4.03
2018-06-03T07:33:23.350Z,4.23
2018-06-03T07:35:50.895Z,4.07
2018-06-03T07:38:18.518Z,3.50
2018-06-03T07:40:46.043Z,3.87
2018-06-03T07:43:13.634Z,3.80
2018-06-03T07:45:41.995Z,3.63
2018-06-03T07:48:09.519Z,4.50
2018-06-03T07:50:37.018Z,4.10
2018-06-03T07:53:04.618Z,4.40
2018-06-03T07:55:32.198Z,4.10
2018-06-03T07:57:59.776Z,4.30
2018-06-03T08:00:27.365Z,4.17
2018-06-03T08:02:54.957Z,4.37
2018-06-03T08:05:22.520Z,3.80
2018-06-03T08:07:50.066Z,4.23
2018-06-03T08:10:22.559Z,3.47
2018-06-03T08:12:50.160Z,4.40
2018-06-03T08:15:17.701Z,4.23
2018-06-03T08:17:45.313Z,4.37
2018-06-03T08:20:13.648Z,4.00
2018-06-03T08:22:41.303Z,4.00
2018-06-03T08:25:08.904Z,3.60
2018-06-03T08:27:37.220Z,4.17
2018-06-03T08:30:04.838Z,3.63
2018-06-03T08:32:32.524Z,3.80
2018-06-03T08:35:00.147Z,3.80
2018-06-03T08:37:27.752Z,4.27
2018-06-03T08:39:55.356Z,4.13
2018-06-03T08:42:22.983Z,3.67
2018-06-03T08:44:50.596Z,3.83
2018-06-03T08:47:18.208Z,3.80
2018-06-03T08:49:46.580Z,3.20
2018-06-03T08:52:14.191Z,3.43
2018-06-03T08:54:41.793Z,3.67
2018-06-03T08:57:09.405Z,3.37
2018-06-03T08:59:37.002Z,3.37
2018-06-03T09:02:04.607Z,3.10
2018-06-03T09:04:32.208Z,3.40
2018-06-03T09:06:59.830Z,3.60
2018-06-03T09:09:27.433Z,3.70
2018-06-03T09:11:55.034Z,3.70
2018-06-03T09:14:22.597Z,4.10
2018-06-03T09:16:50.212Z,3.53
2018-06-03T09:19:17.820Z,3.40
2018-06-03T09:21:45.449Z,3.73
2018-06-03T09:24:12.973Z,3.93
2018-06-03T09:26:40.587Z,3.80
2018-06-03T09:29:08.132Z,3.67
2018-06-03T09:31:35.639Z,3.90
2018-06-03T09:34:03.207Z,3.20
2018-06-03T09:36:30.771Z,3.30
2018-06-03T09:38:58.618Z,3.93
2018-06-03T09:41:26.215Z,3.70
2018-06-03T09:43:53.736Z,3.47
2018-06-03T09:46:21.278Z,3.70
2018-06-03T09:48:48.832Z,3.53
2018-06-03T09:51:16.374Z,3.53
2018-06-03T09:53:43.908Z,3.80
2018-06-03T09:56:11.427Z,3.63
2018-06-03T09:58:38.947Z,4.10
2018-06-03T10:01:06.516Z,3.67
2018-06-03T10:03:34.066Z,4.10
2018-06-03T10:06:32.886Z,3.80
2018-06-03T10:09:01.628Z,3.83
2018-06-03T10:11:30.415Z,3.83
2018-06-03T10:14:00.219Z,3.77
2018-06-03T10:16:29.012Z,3.50
2018-06-03T10:18:57.931Z,3.60
2018-06-03T10:21:27.074Z,3.73
2018-06-03T10:23:55.863Z,3.57
2018-06-03T10:26:24.771Z,3.53
2018-06-03T10:28:53.700Z,3.33
2018-06-03T10:31:27.866Z,3.43
2018-06-03T10:33:56.839Z,3.70
2018-06-03T10:36:25.681Z,3.70
2018-06-03T10:38:54.607Z,3.70
2018-06-03T10:41:23.471Z,3.40
2018-06-03T10:43:52.373Z,3.87
2018-06-03T10:46:21.226Z,3.53
2018-06-03T10:49:08.809Z,3.87
2018-06-03T10:51:37.693Z,3.60
2018-06-03T10:54:06.553Z,3.73
2018-06-03T10:56:35.406Z,3.73
2018-06-03T10:59:04.272Z,3.63
2018-06-03T11:01:33.111Z,3.90
2018-06-03T11:04:02.218Z,3.87
2018-06-03T11:06:31.194Z,3.93
2018-06-03T11:09:00.067Z,4.13
2018-06-03T11:11:28.898Z,3.80
2018-06-03T11:13:57.867Z,4.20
2018-06-03T11:16:27.041Z,4.17
2018-06-03T11:19:09.564Z,4.07
2018-06-03T11:21:38.485Z,3.67
2018-06-03T11:24:07.343Z,3.70
2018-06-03T11:26:36.247Z,3.27
2018-06-03T11:29:05.203Z,3.67
2018-06-03T11:31:34.088Z,3.60
2018-06-03T11:34:02.967Z,3.90
2018-06-03T11:36:31.854Z,3.57
2018-06-03T11:39:01.340Z,3.80
2018-06-03T11:41:30.655Z,4.20
2018-06-03T11:43:59.506Z,3.87
2018-06-03T11:46:28.424Z,3.77
2018-06-03T11:48:57.429Z,3.93
2018-06-03T11:51:29.823Z,3.93
2018-06-03T11:53:58.739Z,3.70
2018-06-03T11:57:02.348Z,3.70
2018-06-03T11:59:42.445Z,3.53
2018-06-03T12:02:12.150Z,3.40
2018-06-03T12:04:40.996Z,3.67
2018-06-03T12:07:10.186Z,3.50
2018-06-03T12:09:40.968Z,3.93
2018-06-03T12:12:10.006Z,3.93
2018-06-03T12:14:38.930Z,3.60
2018-06-03T12:17:07.929Z,3.80
2018-06-03T12:19:36.791Z,4.27
2018-06-03T12:22:05.649Z,4.00
2018-06-03T12:24:34.608Z,3.63
2018-06-03T12:27:03.498Z,4.13
2018-06-03T12:29:32.366Z,4.47
2018-06-03T12:32:01.699Z,4.13
2018-06-03T12:34:30.624Z,3.90
2018-06-03T12:36:59.454Z,4.47
2018-06-03T12:39:28.386Z,4.40
2018-06-03T12:41:57.184Z,3.92
2018-06-03T12:44:26.017Z,4.05
2018-06-03T12:46:54.853Z,4.20
2018-06-03T12:49:23.707Z,3.90
2018-06-03T12:51:52.675Z,3.97
2018-06-03T12:54:21.548Z,4.00
2018-06-03T12:56:50.425Z,4.20
2018-06-03T12:59:19.254Z,4.37
2018-06-03T13:01:48.154Z,4.07
2018-06-03T13:04:20.145Z,4.30
2018-06-03T13:06:49.042Z,4.50
2018-06-03T13:09:18.124Z,4.33
2018-06-03T13:11:46.957Z,4.97
2018-06-03T13:14:15.875Z,4.75
2018-06-03T13:16:44.728Z,4.55
2018-06-03T13:19:23.063Z,4.50
2018-06-03T13:21:52.043Z,4.10
2018-06-03T13:24:21.011Z,5.20
2018-06-03T13:26:49.893Z,4.70
2018-06-03T13:29:18.789Z,5.00
2018-06-03T13:31:50.548Z,4.93
2018-06-03T13:34:19.430Z,4.72
2018-06-03T13:36:48.441Z,4.73
2018-06-03T13:39:17.323Z,4.80
2018-06-03T13:41:46.217Z,5.00
2018-06-03T13:44:15.121Z,4.10
2018-06-03T13:46:43.991Z,4.08
2018-06-03T13:49:13.170Z,4.40
2018-06-03T13:51:42.079Z,4.50
2018-06-03T13:54:11.400Z,4.20
2018-06-03T13:56:40.372Z,4.40
2018-06-03T13:59:09.300Z,4.40
2018-06-03T14:01:38.211Z,4.20
2018-06-03T14:04:07.051Z,3.72
2018-06-03T14:06:35.867Z,4.67
2018-06-03T14:09:06.709Z,4.12
2018-06-03T14:11:35.641Z,4.28
2018-06-03T14:14:04.451Z,3.90
2018-06-03T14:16:33.306Z,4.00
2018-06-03T14:19:07.342Z,3.95
2018-06-03T14:21:36.383Z,4.17
2018-06-03T14:24:05.441Z,3.95
2018-06-03T14:26:34.295Z,3.92
2018-06-03T14:29:03.190Z,3.70
2018-06-03T14:31:32.048Z,4.33
2018-06-03T14:34:01.059Z,4.03
2018-06-03T14:36:30.015Z,4.05
2018-06-03T14:38:59.930Z,4.35
2018-06-03T14:41:28.957Z,4.28
2018-06-03T14:43:57.807Z,4.50
2018-06-03T14:46:26.725Z,3.90
2018-06-03T14:48:55.783Z,4.03
2018-06-03T14:51:24.599Z,3.80
2018-06-03T14:53:53.568Z,4.35
2018-06-03T14:56:22.926Z,4.35
2018-06-03T14:58:51.781Z,4.45
2018-06-03T15:01:20.714Z,4.42
2018-06-03T15:03:49.524Z,4.45
2018-06-03T15:06:18.406Z,4.60
2018-06-03T15:08:47.269Z,4.30
2018-06-03T15:11:16.260Z,4.33
2018-06-03T15:13:45.100Z,4.28
2018-06-03T15:16:13.997Z,4.28
2018-06-03T15:18:42.884Z,4.30
2018-06-03T15:21:11.729Z,4.85
2018-06-03T15:23:42.226Z,4.50
2018-06-03T15:26:11.002Z,4.47
2018-06-03T15:28:39.865Z,4.60
2018-06-03T15:31:08.719Z,4.45
2018-06-03T15:33:37.647Z,4.28
2018-06-03T15:36:06.549Z,4.95
2018-06-03T15:38:35.433Z,4.97
2018-06-03T15:41:03.966Z,5.15
2018-06-03T15:43:32.908Z,4.95
2018-06-03T15:46:01.807Z,4.65
2018-06-03T15:48:30.736Z,4.62
2018-06-03T15:50:59.579Z,4.55
2018-06-03T15:53:28.537Z,4.55
2018-06-03T15:55:57.540Z,4.40
2018-06-03T15:58:26.490Z,4.45
2018-06-03T16:00:55.385Z,5.05
2018-06-03T16:03:24.201Z,4.47
2018-06-03T16:05:53.090Z,4.58
2018-06-03T16:08:21.948Z,4.15
2018-06-03T16:10:50.787Z,4.30
2018-06-03T16:13:19.711Z,4.47
2018-06-03T16:15:48.611Z,4.90
2018-06-03T16:18:18.107Z,5.08
2018-06-03T16:20:47.072Z,4.83
2018-06-03T16:23:15.949Z,4.37
2018-06-03T16:25:44.812Z,4.90
2018-06-03T16:28:13.788Z,4.47
2018-06-03T16:30:42.628Z,4.92
2018-06-03T16:33:11.500Z,4.35
2018-06-03T16:35:40.373Z,4.47
2018-06-03T16:38:09.312Z,4.30
2018-06-03T16:40:38.358Z,4.20
2018-06-03T16:43:08.626Z,4.37
2018-06-03T16:45:37.501Z,4.83
2018-06-03T16:48:06.346Z,4.60
2018-06-03T16:50:53.401Z,4.40
2018-06-03T16:53:22.224Z,4.55
2018-06-03T16:55:51.128Z,4.67
2018-06-03T16:58:20.070Z,4.20
2018-06-03T17:00:49.144Z,4.40
2018-06-03T17:03:18.631Z,4.03
2018-06-03T17:05:47.674Z,4.75
2018-06-03T17:08:16.576Z,4.90
2018-06-03T17:10:45.717Z,4.40
2018-06-03T17:13:14.645Z,4.45
2018-06-03T17:15:43.471Z,5.00
2018-06-03T17:18:12.368Z,4.20
2018-06-03T17:20:41.257Z,5.40
2018-06-03T17:23:10.096Z,4.55
2018-06-03T17:25:38.986Z,4.58
2018-06-03T17:28:07.912Z,4.62
2018-06-03T17:30:36.773Z,4.85
2018-06-03T17:33:05.722Z,4.70
2018-06-03T17:35:34.611Z,4.30
2018-06-03T17:38:03.773Z,4.83
2018-06-03T17:40:33.101Z,4.40
2018-06-03T17:43:02.061Z,4.40
2018-06-03T17:45:30.908Z,4.63
2018-06-03T17:47:59.876Z,4.50
2018-06-03T17:50:28.912Z,4.12
2018-06-03T17:52:57.894Z,4.63
2018-06-03T17:55:26.756Z,4.90
2018-06-03T17:57:55.629Z,4.40
2018-06-03T18:00:24.616Z,4.63
2018-06-03T18:02:53.576Z,4.37
2018-06-03T18:05:22.428Z,4.93
2018-06-03T18:07:50.878Z,4.60
2018-06-03T18:10:19.774Z,4.53
2018-06-03T18:12:49.380Z,4.40
2018-06-03T18:15:18.181Z,4.90
2018-06-03T18:17:47.026Z,4.47
2018-06-03T18:20:15.980Z,4.70
2018-06-03T18:22:46.251Z,4.20
2018-06-03T18:25:15.199Z,4.70
2018-06-03T18:27:44.270Z,4.57
2018-06-03T18:30:13.167Z,4.40
2018-06-03T18:32:42.090Z,4.20
2018-06-03T18:35:10.969Z,4.23
2018-06-03T18:37:39.912Z,4.67
2018-06-03T18:40:09.855Z,4.73
2018-06-03T18:42:38.735Z,4.77
2018-06-03T18:45:07.607Z,4.33
2018-06-03T18:47:36.485Z,4.73
2018-06-03T18:50:06.353Z,4.37
2018-06-03T18:52:35.173Z,4.60
2018-06-03T18:55:04.064Z,4.40
2018-06-03T18:57:32.917Z,4.23
2018-06-03T19:00:01.745Z,4.90
2018-06-03T19:02:30.620Z,4.67
2018-06-03T19:04:59.509Z,4.57
2018-06-03T19:07:28.380Z,4.27
2018-06-03T19:09:57.268Z,4.50
2018-06-03T19:12:26.172Z,4.27
2018-06-03T19:14:54.999Z,4.07
2018-06-03T19:17:23.849Z,4.83
2018-06-03T19:19:52.781Z,4.77
2018-06-03T19:22:22.463Z,4.60
2018-06-03T19:24:51.432Z,4.40
2018-06-03T19:27:20.296Z,5.27
2018-06-03T19:29:49.228Z,4.43
2018-06-03T19:32:18.029Z,4.20
2018-06-03T19:34:46.881Z,4.60
2018-06-03T19:37:15.766Z,4.17
2018-06-03T19:39:44.543Z,4.60
2018-06-03T19:42:13.452Z,5.00
2018-06-03T19:44:42.318Z,5.13
2018-06-03T19:47:11.124Z,4.17
2018-06-03T19:49:39.989Z,4.50
2018-06-03T19:52:08.853Z,6.13
2018-06-03T19:54:37.706Z,4.60
2018-06-03T19:57:06.573Z,4.53
2018-06-03T20:02:28.021Z,4.67
2018-06-03T20:04:56.943Z,4.67
2018-06-03T20:07:25.701Z,5.10
2018-06-03T20:09:54.648Z,4.80
2018-06-03T20:12:23.441Z,4.70
2018-06-03T20:14:52.151Z,4.60
2018-06-03T20:17:25.017Z,4.40
2018-06-03T20:19:53.811Z,4.50
2018-06-03T20:22:22.626Z,4.97
2018-06-03T20:24:51.460Z,4.83
2018-06-03T20:27:20.229Z,4.63
2018-06-03T20:30:02.546Z,4.57
2018-06-03T20:32:31.588Z,4.40
2018-06-03T20:35:00.417Z,4.77
2018-06-03T20:37:30.087Z,5.83
2018-06-03T20:39:59.113Z,5.37
2018-06-03T20:42:27.930Z,4.80
2018-06-03T20:44:56.831Z,4.90
2018-06-03T20:47:25.601Z,5.03
2018-06-03T20:49:54.332Z,5.93
2018-06-03T20:52:23.101Z,4.47
2018-06-03T20:54:51.848Z,4.63
2018-06-03T20:57:20.616Z,4.37
2018-06-03T20:59:49.304Z,4.07
2018-06-03T21:02:18.071Z,4.23
2018-06-03T21:04:46.488Z,4.00
2018-06-03T21:07:15.197Z,3.97
2018-06-03T21:09:43.985Z,3.93
2018-06-03T21:12:12.796Z,4.30
2018-06-03T21:14:41.536Z,4.07
2018-06-03T21:17:10.309Z,4.37
2018-06-03T21:19:39.243Z,4.20
2018-06-03T21:22:08.079Z,4.10
2018-06-03T21:24:36.818Z,3.73
2018-06-03T21:27:05.675Z,3.93
2018-06-03T21:29:34.475Z,4.30
2018-06-03T21:32:03.358Z,4.33
2018-06-03T21:34:32.643Z,4.70
2018-06-03T21:37:01.447Z,4.40
2018-06-03T21:39:30.224Z,4.20
2018-06-03T21:41:59.009Z,4.07
2018-06-03T21:44:27.697Z,3.80
2018-06-03T21:46:56.374Z,3.73
2018-06-03T21:49:25.189Z,4.30
2018-06-03T21:51:54.869Z,4.23
2018-06-03T21:54:23.620Z,4.77
2018-06-03T21:56:52.478Z,4.00
2018-06-03T21:59:21.261Z,4.37
2018-06-03T22:01:50.060Z,4.63
2018-06-03T22:04:18.768Z,4.20
2018-06-03T22:06:47.754Z,4.43
2018-06-03T22:09:16.559Z,4.07
2018-06-03T22:11:45.339Z,4.30
2018-06-03T22:14:14.076Z,4.33
2018-06-03T22:16:42.826Z,4.60
2018-06-03T22:19:11.541Z,4.60
2018-06-03T22:21:40.253Z,4.27
2018-06-03T22:24:09.118Z,4.30
2018-06-03T22:26:37.863Z,3.90
2018-06-03T22:29:06.585Z,4.40
2018-06-03T22:31:35.295Z,4.10
2018-06-03T22:34:04.007Z,4.20
2018-06-03T22:36:32.764Z,4.23
2018-06-03T22:39:01.483Z,4.07
2018-06-03T22:41:30.267Z,4.00
2018-06-03T22:43:59.059Z,3.67
2018-06-03T22:46:27.791Z,4.23
2018-06-03T22:48:56.533Z,3.80
2018-06-03T22:51:25.266Z,4.40
2018-06-03T22:53:53.947Z,4.20
2018-06-03T22:56:22.724Z,4.30
2018-06-03T22:58:51.466Z,4.33
2018-06-03T23:01:20.165Z,4.20
2018-06-03T23:03:48.791Z,4.00
2018-06-03T23:06:17.497Z,4.43
2018-06-03T23:08:46.100Z,4.13
2018-06-03T23:11:14.720Z,3.67
2018-06-03T23:13:43.235Z,3.90
2018-06-03T23:16:11.830Z,3.83
2018-06-03T23:18:40.489Z,3.90
2018-06-03T23:21:09.286Z,3.90
2018-06-03T23:23:37.831Z,4.00
2018-06-03T23:26:06.495Z,4.00
2018-06-03T23:28:35.086Z,3.60
2018-06-03T23:31:03.698Z,3.80
2018-06-03T23:33:32.347Z,3.80
2018-06-03T23:36:00.989Z,4.67
2018-06-03T23:38:29.574Z,4.13
2018-06-03T23:40:58.185Z,4.13
2018-06-03T23:43:26.702Z,4.30
2018-06-03T23:45:55.262Z,4.90
2018-06-03T23:48:24.147Z,4.57
2018-06-03T23:50:52.790Z,5.03
2018-06-03T23:53:21.361Z,4.87
2018-06-03T23:55:50.092Z,4.83
2018-06-03T23:58:18.843Z,4.83
